createdAt,value
2023-01-04T00:01:26.066Z,100.00
2023-01-04T00:03:54.007Z,100.00
2023-01-04T00:06:22.582Z,100.00
2023-01-04T00:08:50.439Z,100.00
2023-01-04T00:11:22.187Z,100.00
2023-01-04T00:13:51.767Z,100.00
2023-01-04T00:16:21.793Z,100.00
2023-01-04T00:18:50.175Z,100.00
2023-01-04T00:21:19.703Z,100.00
2023-01-04T00:23:50.316Z,100.00
2023-01-04T00:26:21.638Z,100.00
2023-01-04T00:28:54.294Z,100.00
2023-01-04T00:31:23.949Z,100.00
2023-01-04T00:33:52.207Z,100.00
2023-01-04T00:36:20.174Z,100.00
2023-01-04T00:38:48.279Z,100.00
2023-01-04T00:41:34.707Z,100.00
2023-01-04T00:44:06.910Z,100.00
2023-01-04T00:46:35.618Z,100.00
2023-01-04T00:49:03.642Z,100.00
2023-01-04T00:51:32.668Z,100.00
2023-01-04T00:54:02.251Z,100.00
2023-01-04T00:56:30.870Z,100.00
2023-01-04T00:59:00.213Z,100.00
2023-01-04T01:01:31.020Z,100.00
2023-01-04T01:04:01.734Z,100.00
2023-01-04T01:06:31.225Z,100.00
2023-01-04T01:08:59.072Z,100.00
2023-01-04T01:11:27.826Z,100.00
2023-01-04T01:13:55.583Z,100.00
2023-01-04T01:16:51.711Z,100.00
2023-01-04T01:19:14.186Z,100.00
2023-01-04T01:21:42.218Z,100.00
2023-01-04T01:24:15.866Z,100.00
2023-01-04T01:26:44.039Z,100.00
2023-01-04T01:29:11.861Z,100.00
2023-01-04T01:31:41.683Z,100.00
2023-01-04T01:34:10.392Z,100.00
2023-01-04T01:36:39.672Z,100.00
2023-01-04T01:39:07.843Z,100.00
2023-01-04T01:41:37.023Z,100.00
2023-01-04T01:44:07.835Z,100.00
2023-01-04T01:46:41.138Z,100.00
2023-01-04T01:49:15.719Z,100.00
2023-01-04T01:51:45.728Z,100.00
2023-01-04T01:54:20.623Z,100.00
2023-01-04T01:56:51.127Z,100.00
2023-01-04T01:59:20.445Z,100.00
2023-01-04T02:01:48.492Z,100.00
2023-01-04T02:04:17.333Z,100.00
2023-01-04T02:06:51.124Z,100.00
2023-01-04T02:09:20.461Z,100.00
2023-01-04T02:11:48.447Z,100.00
2023-01-04T02:14:28.526Z,100.00
2023-01-04T02:17:07.854Z,100.00
2023-01-04T02:19:54.037Z,100.00
2023-01-04T02:22:52.732Z,100.00
2023-01-04T02:25:50.006Z,100.00
2023-01-04T02:28:30.818Z,100.00
2023-01-04T02:31:15.020Z,100.00
2023-01-04T02:33:48.665Z,100.00
2023-01-04T02:36:24.736Z,100.00
2023-01-04T02:39:05.223Z,100.00
2023-01-04T02:41:35.414Z,100.00
2023-01-04T02:44:28.238Z,100.00
2023-01-04T02:47:02.714Z,100.00
2023-01-04T02:49:48.315Z,100.00
2023-01-04T02:52:16.403Z,100.00
2023-01-04T02:54:48.197Z,100.00
2023-01-04T02:57:33.014Z,100.00
2023-01-04T03:00:13.187Z,100.00
2023-01-04T03:03:24.332Z,100.00
2023-01-04T03:06:16.609Z,100.00
2023-01-04T03:08:50.621Z,100.00
2023-01-04T03:11:37.374Z,100.00
2023-01-04T03:14:32.112Z,100.00
2023-01-04T03:16:58.894Z,100.00
2023-01-04T03:19:42.430Z,100.00
2023-01-04T03:22:35.017Z,100.00
2023-01-04T03:25:21.434Z,100.00
2023-01-04T03:28:10.664Z,100.00
2023-01-04T03:31:05.006Z,100.00
2023-01-04T03:33:51.504Z,100.00
2023-01-04T03:36:31.378Z,100.00
2023-01-04T03:39:23.065Z,100.00
2023-01-04T03:42:17.485Z,100.00
2023-01-04T03:45:11.373Z,100.00
2023-01-04T03:48:05.336Z,100.00
2023-01-04T03:50:39.437Z,100.00
2023-01-04T03:53:10.222Z,100.00
2023-01-04T03:55:40.362Z,100.00
2023-01-04T03:58:08.263Z,100.00
2023-01-04T04:00:36.393Z,100.00
2023-01-04T04:03:10.218Z,100.00
2023-01-04T04:05:58.250Z,100.00
2023-01-04T04:08:30.956Z,100.00
2023-01-04T04:11:22.919Z,100.00
2023-01-04T04:13:51.822Z,100.00
2023-01-04T04:16:19.869Z,100.00
2023-01-04T04:18:48.118Z,100.00
2023-01-04T04:21:16.185Z,100.00
2023-01-04T04:23:45.567Z,100.00
2023-01-04T04:26:13.683Z,100.00
2023-01-04T04:28:42.139Z,100.00
2023-01-04T04:31:10.398Z,100.00
2023-01-04T04:33:38.130Z,100.00
2023-01-04T04:36:07.142Z,100.00
2023-01-04T04:38:35.353Z,100.00
2023-01-04T04:41:27.108Z,100.00
2023-01-04T04:43:55.310Z,100.00
2023-01-04T04:46:23.344Z,100.00
2023-01-04T04:48:51.188Z,100.00
2023-01-04T04:51:19.183Z,100.00
2023-01-04T04:53:47.151Z,100.00
2023-01-04T04:56:16.534Z,100.00
2023-01-04T04:58:44.392Z,100.00
2023-01-04T05:01:12.679Z,100.00
2023-01-04T05:03:40.681Z,100.00
2023-01-04T05:06:09.348Z,100.00
2023-01-04T05:08:37.265Z,100.00
2023-01-04T05:11:09.481Z,100.00
2023-01-04T05:13:37.788Z,100.00
2023-01-04T05:16:07.611Z,100.00
2023-01-04T05:18:35.436Z,100.00
2023-01-04T05:21:03.604Z,100.00
2023-01-04T05:23:31.370Z,100.00
2023-01-04T05:26:02.179Z,100.00
2023-01-04T05:28:30.057Z,100.00
2023-01-04T05:30:58.601Z,100.00
2023-01-04T05:33:28.342Z,100.00
2023-01-04T05:35:58.244Z,100.00
2023-01-04T05:38:27.008Z,100.00
2023-01-04T05:40:55.447Z,100.00
2023-01-04T05:43:24.987Z,100.00
2023-01-04T05:45:55.043Z,100.00
2023-01-04T05:48:25.868Z,100.00
2023-01-04T05:50:54.030Z,100.00
2023-01-04T05:53:21.765Z,100.00
2023-01-04T05:55:49.763Z,100.00
2023-01-04T05:58:17.450Z,100.00
2023-01-04T06:00:45.431Z,100.00
2023-01-04T06:03:13.295Z,100.00
2023-01-04T06:05:42.865Z,100.00
2023-01-04T06:08:10.543Z,100.00
2023-01-04T06:10:38.605Z,100.00
2023-01-04T06:13:06.367Z,100.00
2023-01-04T06:15:39.365Z,100.00
2023-01-04T06:18:13.579Z,100.00
2023-01-04T06:20:44.427Z,100.00
2023-01-04T06:23:12.503Z,100.00
2023-01-04T06:25:40.560Z,100.00
2023-01-04T06:28:08.244Z,100.00
2023-01-04T06:30:36.294Z,100.00
2023-01-04T06:33:04.124Z,100.00
2023-01-04T06:35:32.120Z,100.00
2023-01-04T06:38:01.253Z,100.00
2023-01-04T06:40:29.227Z,100.00
2023-01-04T06:42:57.065Z,100.00
2023-01-04T06:45:25.115Z,100.00
2023-01-04T06:47:52.796Z,100.00
2023-01-04T06:50:20.723Z,100.00
2023-01-04T06:52:48.376Z,100.00
2023-01-04T06:55:18.066Z,100.00
2023-01-04T06:57:45.775Z,100.00
2023-01-04T07:00:15.333Z,100.00
2023-01-04T07:03:13.728Z,100.00
2023-01-04T07:05:31.646Z,100.00
2023-01-04T07:08:07.450Z,100.00
2023-01-04T07:10:37.998Z,100.00
2023-01-04T07:13:06.480Z,100.00
2023-01-04T07:15:38.230Z,100.00
2023-01-04T07:18:08.279Z,100.00
2023-01-04T07:20:36.319Z,100.00
2023-01-04T07:23:04.161Z,100.00
2023-01-04T07:25:32.147Z,100.00
2023-01-04T07:28:01.306Z,100.00
2023-01-04T07:30:29.548Z,100.00
2023-01-04T07:32:58.299Z,100.00
2023-01-04T07:35:26.343Z,100.00
2023-01-04T07:37:58.778Z,100.00
2023-01-04T07:40:28.298Z,100.00
2023-01-04T07:42:57.896Z,100.00
2023-01-04T07:45:27.555Z,100.00
2023-01-04T07:47:55.323Z,100.00
2023-01-04T07:50:23.420Z,100.00
2023-01-04T07:52:51.121Z,100.00
2023-01-04T07:55:19.064Z,100.00
2023-01-04T07:57:46.753Z,99.80
2023-01-04T08:00:15.459Z,97.18
2023-01-04T08:02:44.677Z,96.66
2023-01-04T08:05:12.845Z,96.48
2023-01-04T08:07:40.741Z,96.14
2023-01-04T08:10:09.854Z,95.58
2023-01-04T08:12:37.535Z,95.09
2023-01-04T08:15:06.457Z,95.42
2023-01-04T08:17:34.122Z,96.07
2023-01-04T08:20:03.513Z,95.73
2023-01-04T08:22:31.255Z,96.44
2023-01-04T08:24:59.250Z,95.26
2023-01-04T08:27:27.324Z,96.98
2023-01-04T08:29:55.389Z,99.22
2023-01-04T08:32:23.091Z,100.00
2023-01-04T08:34:51.037Z,100.00
2023-01-04T08:37:20.211Z,100.00
2023-01-04T08:39:49.660Z,100.00
2023-01-04T08:42:26.581Z,100.00
2023-01-04T08:45:01.343Z,100.00
2023-01-04T08:47:30.353Z,100.00
2023-01-04T08:50:02.134Z,100.00
2023-01-04T08:52:35.574Z,98.68
2023-01-04T08:55:08.327Z,94.09
2023-01-04T08:57:40.042Z,93.08
2023-01-04T09:00:09.746Z,89.97
2023-01-04T09:02:37.576Z,86.53
2023-01-04T09:05:06.921Z,86.80
2023-01-04T09:07:36.086Z,85.18
2023-01-04T09:10:04.471Z,83.43
2023-01-04T09:12:32.371Z,83.07
2023-01-04T09:15:00.347Z,86.33
2023-01-04T09:17:28.097Z,84.61
2023-01-04T09:19:56.120Z,85.82
2023-01-04T09:22:23.928Z,84.76
2023-01-04T09:24:54.012Z,83.57
2023-01-04T09:27:21.873Z,80.38
2023-01-04T09:29:49.855Z,76.05
2023-01-04T09:32:17.608Z,75.91
2023-01-04T09:34:46.355Z,75.13
2023-01-04T09:37:14.070Z,73.48
2023-01-04T09:39:42.084Z,75.72
2023-01-04T09:42:20.183Z,72.70
2023-01-04T09:45:22.424Z,72.62
2023-01-04T09:47:44.414Z,71.55
2023-01-04T09:50:17.550Z,71.38
2023-01-04T09:52:55.562Z,70.38
2023-01-04T09:55:37.112Z,67.05
2023-01-04T09:58:18.747Z,68.57
2023-01-04T10:00:51.119Z,67.85
2023-01-04T10:03:25.260Z,66.46
2023-01-04T10:05:55.915Z,66.95
2023-01-04T10:08:24.807Z,64.74
2023-01-04T10:11:07.631Z,66.53
2023-01-04T10:13:59.505Z,64.72
2023-01-04T10:17:11.853Z,64.21
2023-01-04T10:22:42.667Z,65.21
2023-01-04T10:25:24.932Z,65.14
2023-01-04T10:28:07.710Z,63.73
2023-01-04T10:30:45.913Z,60.81
2023-01-04T10:33:17.268Z,59.80
2023-01-04T10:35:46.914Z,58.91
2023-01-04T10:38:18.150Z,58.04
2023-01-04T10:40:48.735Z,57.73
2023-01-04T10:43:26.423Z,57.95
2023-01-04T10:46:03.290Z,57.64
2023-01-04T10:48:40.294Z,56.33
2023-01-04T10:51:10.626Z,55.74
2023-01-04T10:53:45.325Z,54.84
2023-01-04T10:56:24.469Z,56.58
2023-01-04T10:59:01.845Z,56.40
2023-01-04T11:01:36.843Z,56.47
2023-01-04T11:04:12.421Z,57.76
2023-01-04T11:06:45.768Z,57.14
2023-01-04T11:09:24.761Z,55.27
2023-01-04T11:11:56.228Z,56.65
2023-01-04T11:14:25.591Z,57.13
2023-01-04T11:17:02.108Z,58.39
2023-01-04T11:19:30.879Z,60.76
2023-01-04T11:22:03.445Z,60.14
2023-01-04T11:24:33.995Z,59.53
2023-01-04T11:27:06.169Z,57.19
2023-01-04T11:29:36.342Z,58.24
2023-01-04T11:32:12.097Z,58.88
2023-01-04T11:34:46.334Z,59.17
2023-01-04T11:37:33.406Z,59.27
2023-01-04T11:40:20.942Z,59.52
2023-01-04T11:42:50.505Z,59.34
2023-01-04T11:45:21.919Z,60.88
2023-01-04T11:47:53.541Z,60.08
2023-01-04T11:50:43.088Z,60.36
2023-01-04T11:53:26.639Z,60.40
2023-01-04T11:56:11.928Z,60.77
2023-01-04T11:58:39.984Z,59.90
2023-01-04T12:01:21.295Z,60.88
2023-01-04T12:03:51.537Z,59.75
2023-01-04T12:06:23.469Z,62.88
2023-01-04T12:08:51.493Z,63.15
2023-01-04T12:11:25.832Z,63.47
2023-01-04T12:13:53.956Z,63.70
2023-01-04T12:16:41.446Z,62.45
2023-01-04T12:19:15.259Z,63.98
2023-01-04T12:21:45.800Z,63.27
2023-01-04T12:24:19.488Z,63.34
2023-01-04T12:26:48.631Z,61.83
2023-01-04T12:29:43.200Z,61.75
2023-01-04T12:32:40.406Z,61.13
2023-01-04T12:35:41.537Z,62.95
2023-01-04T12:38:12.059Z,61.03
2023-01-04T12:40:54.535Z,58.99
2023-01-04T12:43:27.457Z,58.59
2023-01-04T12:46:50.416Z,59.00
2023-01-04T12:49:36.960Z,56.97
2023-01-04T12:56:00.914Z,58.38
2023-01-04T12:59:23.652Z,57.46
2023-01-04T13:01:31.397Z,57.65
2023-01-04T13:04:05.721Z,57.58
2023-01-04T13:06:43.451Z,58.33
2023-01-04T13:09:22.077Z,58.34
2023-01-04T13:12:07.405Z,57.87
2023-01-04T13:14:40.258Z,58.74
2023-01-04T13:17:17.287Z,57.97
2023-01-04T13:19:45.481Z,58.59
2023-01-04T13:22:26.575Z,58.81
2023-01-04T13:24:58.635Z,58.96
2023-01-04T13:27:28.541Z,59.20
2023-01-04T13:29:56.647Z,59.58
2023-01-04T13:32:27.025Z,59.32
2023-01-04T13:34:56.624Z,60.05
2023-01-04T13:37:29.186Z,59.99
2023-01-04T13:40:17.797Z,59.80
2023-01-04T13:42:49.247Z,60.19
2023-01-04T13:45:50.962Z,60.38
2023-01-04T13:48:21.741Z,59.50
2023-01-04T13:51:01.490Z,60.35
2023-01-04T13:53:31.187Z,61.28
2023-01-04T13:56:01.469Z,61.70
2023-01-04T13:58:32.037Z,60.61
2023-01-04T14:01:03.586Z,60.67
2023-01-04T14:03:36.140Z,60.04
2023-01-04T14:06:15.360Z,60.64
2023-01-04T14:08:49.098Z,60.23
2023-01-04T14:11:35.954Z,59.63
2023-01-04T14:14:14.001Z,60.38
2023-01-04T14:16:41.725Z,60.23
2023-01-04T14:19:40.736Z,60.83
2023-01-04T14:22:26.678Z,61.96
2023-01-04T14:25:11.967Z,62.07
2023-01-04T14:27:41.468Z,62.99
2023-01-04T14:30:24.333Z,63.58
2023-01-04T14:32:58.856Z,64.07
2023-01-04T14:35:27.961Z,64.21
2023-01-04T14:38:02.676Z,65.02
2023-01-04T14:40:32.267Z,65.59
2023-01-04T14:43:00.280Z,66.92
2023-01-04T14:45:29.737Z,67.70
2023-01-04T14:47:57.574Z,67.67
2023-01-04T14:50:25.553Z,67.75
2023-01-04T14:52:54.603Z,67.90
2023-01-04T14:55:24.728Z,68.33
2023-01-04T14:57:52.430Z,68.90
2023-01-04T15:00:20.626Z,69.02
2023-01-04T15:02:51.918Z,69.57
2023-01-04T15:05:20.628Z,70.31
2023-01-04T15:07:49.367Z,76.03
2023-01-04T15:10:22.803Z,69.50
2023-01-04T15:12:50.580Z,69.71
2023-01-04T15:15:19.304Z,69.50
2023-01-04T15:17:47.327Z,70.03
2023-01-04T15:20:16.899Z,69.77
2023-01-04T15:22:44.842Z,69.90
2023-01-04T15:25:12.853Z,70.62
2023-01-04T15:27:42.713Z,71.05
2023-01-04T15:30:11.961Z,71.15
2023-01-04T15:32:40.364Z,72.15
2023-01-04T15:35:09.250Z,70.85
2023-01-04T15:37:38.292Z,71.15
2023-01-04T15:40:07.249Z,70.71
2023-01-04T15:42:51.932Z,70.98
2023-01-04T15:45:21.076Z,71.54
2023-01-04T15:47:48.774Z,71.24
2023-01-04T15:50:17.063Z,71.12
2023-01-04T15:52:46.388Z,71.29
2023-01-04T15:55:14.948Z,71.89
2023-01-04T15:57:44.277Z,72.13
2023-01-04T16:00:13.945Z,72.78
2023-01-04T16:02:42.080Z,72.52
2023-01-04T16:05:11.086Z,72.64
2023-01-04T16:07:38.881Z,72.98
2023-01-04T16:10:09.450Z,72.65
2023-01-04T16:12:44.457Z,72.91
2023-01-04T16:15:14.868Z,73.29
2023-01-04T16:17:43.277Z,74.53
2023-01-04T16:20:13.510Z,75.22
2023-01-04T16:22:41.789Z,76.07
2023-01-04T16:25:12.656Z,76.12
2023-01-04T16:27:40.938Z,76.80
2023-01-04T16:30:13.409Z,76.69
2023-01-04T16:32:42.196Z,76.93
2023-01-04T16:35:11.560Z,78.50
2023-01-04T16:37:39.685Z,78.30
2023-01-04T16:40:09.596Z,79.93
2023-01-04T16:42:39.708Z,78.95
2023-01-04T16:45:09.211Z,79.54
2023-01-04T16:47:40.402Z,80.03
2023-01-04T16:50:09.665Z,80.66
2023-01-04T16:52:38.098Z,80.24
2023-01-04T16:55:07.729Z,80.61
2023-01-04T16:57:35.470Z,81.23
2023-01-04T17:00:06.038Z,81.56
2023-01-04T17:02:34.056Z,81.60
2023-01-04T17:05:02.728Z,81.24
2023-01-04T17:07:33.126Z,81.64
2023-01-04T17:10:01.649Z,81.77
2023-01-04T17:12:47.089Z,82.75
2023-01-04T17:18:05.530Z,83.59
2023-01-04T17:20:33.797Z,83.80
2023-01-04T17:23:01.499Z,84.42
2023-01-04T17:25:30.054Z,84.95
2023-01-04T17:27:57.862Z,85.41
2023-01-04T17:30:27.179Z,85.99
2023-01-04T17:32:54.910Z,85.78
2023-01-04T17:35:23.215Z,85.78
2023-01-04T17:37:50.914Z,86.31
2023-01-04T17:40:22.903Z,86.10
2023-01-04T17:42:51.026Z,86.70
2023-01-04T17:45:18.937Z,86.64
2023-01-04T17:47:48.032Z,87.01
2023-01-04T17:50:17.350Z,87.45
2023-01-04T17:52:45.100Z,87.45
2023-01-04T17:55:13.006Z,87.25
2023-01-04T18:00:10.089Z,87.70
2023-01-04T18:02:37.804Z,88.48
2023-01-04T18:05:07.924Z,89.26
2023-01-04T18:07:36.075Z,90.26
2023-01-04T18:10:05.016Z,90.47
2023-01-04T18:12:32.703Z,90.70
2023-01-04T18:15:00.654Z,90.90
2023-01-04T18:17:28.450Z,90.69
2023-01-04T18:19:57.550Z,91.31
2023-01-04T18:22:26.542Z,91.34
2023-01-04T18:24:54.504Z,91.71
2023-01-04T18:27:24.454Z,91.41
2023-01-04T18:29:54.651Z,91.62
2023-01-04T18:32:23.008Z,92.40
2023-01-04T18:34:51.061Z,92.75
2023-01-04T18:37:19.385Z,93.08
2023-01-04T18:39:48.781Z,93.15
2023-01-04T18:42:17.147Z,93.91
2023-01-04T18:44:48.931Z,93.97
2023-01-04T18:47:19.666Z,93.83
2023-01-04T18:49:47.890Z,94.51
2023-01-04T18:52:15.927Z,94.22
2023-01-04T18:54:45.089Z,94.05
2023-01-04T18:57:14.591Z,93.72
2023-01-04T18:59:42.345Z,94.25
2023-01-04T19:02:17.278Z,94.17
2023-01-04T19:04:45.378Z,94.44
2023-01-04T19:07:13.510Z,94.49
2023-01-04T19:09:42.484Z,93.48
2023-01-04T19:12:11.076Z,92.20
2023-01-04T19:14:41.694Z,92.33
2023-01-04T19:17:10.019Z,92.02
2023-01-04T19:19:38.239Z,92.02
2023-01-04T19:22:06.500Z,91.52
2023-01-04T19:24:34.253Z,91.58
2023-01-04T19:27:05.065Z,91.76
2023-01-04T19:29:33.990Z,90.78
2023-01-04T19:32:04.007Z,90.73
2023-01-04T19:34:31.747Z,90.54
2023-01-04T19:37:00.251Z,90.66
2023-01-04T19:39:27.950Z,91.10
2023-01-04T19:41:55.914Z,90.85
2023-01-04T19:44:23.661Z,90.19
2023-01-04T19:46:51.596Z,89.75
2023-01-04T19:49:20.604Z,89.27
2023-01-04T19:51:51.573Z,90.06
2023-01-04T19:54:25.206Z,89.89
2023-01-04T19:56:54.488Z,90.17
2023-01-04T19:59:22.638Z,90.15
2023-01-04T20:01:50.864Z,89.42
2023-01-04T20:04:20.200Z,89.84
2023-01-04T20:06:48.247Z,90.34
2023-01-04T20:09:18.303Z,91.09
2023-01-04T20:11:46.630Z,90.31
2023-01-04T20:14:14.303Z,90.19
2023-01-04T20:16:42.315Z,90.15
2023-01-04T20:19:10.008Z,91.65
2023-01-04T20:21:39.617Z,90.13
2023-01-04T20:24:07.995Z,90.83
2023-01-04T20:26:36.088Z,90.83
2023-01-04T20:29:04.493Z,90.57
2023-01-04T20:31:34.312Z,90.87
2023-01-04T20:34:02.246Z,91.54
2023-01-04T20:36:30.365Z,91.79
2023-01-04T20:39:00.354Z,92.21
2023-01-04T20:41:31.753Z,92.27
2023-01-04T20:43:59.603Z,92.16
2023-01-04T20:46:31.659Z,92.32
2023-01-04T20:49:00.351Z,92.33
2023-01-04T20:51:30.565Z,92.62
2023-01-04T20:54:00.054Z,92.27
2023-01-04T20:56:30.565Z,92.74
2023-01-04T20:58:58.369Z,92.35
2023-01-04T21:01:26.582Z,92.11
2023-01-04T21:03:54.405Z,92.08
2023-01-04T21:06:23.150Z,92.04
2023-01-04T21:08:52.444Z,92.26
2023-01-04T21:11:22.219Z,92.16
2023-01-04T21:13:51.190Z,92.36
2023-01-04T21:16:19.250Z,92.19
2023-01-04T21:18:47.118Z,92.36
2023-01-04T21:21:17.243Z,91.93
2023-01-04T21:23:45.627Z,91.35
2023-01-04T21:26:15.329Z,91.79
2023-01-04T21:28:45.110Z,91.58
2023-01-04T21:31:14.842Z,92.34
2023-01-04T21:33:44.990Z,91.88
2023-01-04T21:36:15.132Z,91.86
2023-01-04T21:38:43.173Z,92.50
2023-01-04T21:41:14.494Z,92.25
2023-01-04T21:43:43.772Z,92.20
2023-01-04T21:46:14.668Z,92.15
2023-01-04T21:48:42.785Z,91.90
2023-01-04T21:51:10.884Z,91.87
2023-01-04T21:53:40.534Z,91.89
2023-01-04T21:56:10.558Z,92.08
2023-01-04T21:58:38.260Z,92.43
2023-01-04T22:01:11.107Z,92.67
2023-01-04T22:03:38.966Z,93.33
2023-01-04T22:06:07.779Z,93.02
2023-01-04T22:08:35.932Z,93.28
2023-01-04T22:11:04.699Z,93.33
2023-01-04T22:13:32.920Z,92.80
2023-01-04T22:16:01.056Z,92.71
2023-01-04T22:18:30.134Z,92.93
2023-01-04T22:21:05.738Z,93.34
2023-01-04T22:23:34.310Z,93.07
2023-01-04T22:26:02.295Z,92.88
2023-01-04T22:28:36.492Z,93.30
2023-01-04T22:31:06.398Z,93.33
2023-01-04T22:33:35.698Z,93.85
2023-01-04T22:36:06.069Z,93.96
2023-01-04T22:38:34.842Z,93.99
2023-01-04T22:41:07.115Z,93.85
2023-01-04T22:43:35.095Z,93.42
2023-01-04T22:46:05.082Z,93.60
2023-01-04T22:48:33.075Z,94.14
2023-01-04T22:51:06.082Z,93.84
2023-01-04T22:53:33.822Z,93.90
2023-01-04T22:56:22.430Z,94.16
2023-01-04T22:58:54.735Z,94.91
2023-01-04T23:01:24.686Z,94.70
2023-01-04T23:03:53.037Z,94.81
2023-01-04T23:06:23.269Z,95.67
2023-01-04T23:08:56.794Z,96.43
2023-01-04T23:11:25.224Z,96.28
2023-01-04T23:13:53.484Z,96.68
2023-01-04T23:16:27.898Z,97.58
2023-01-04T23:18:59.581Z,98.96
2023-01-04T23:21:29.088Z,100.00
2023-01-04T23:23:56.968Z,100.00
2023-01-04T23:26:27.137Z,100.00
2023-01-04T23:28:55.148Z,100.00
2023-01-04T23:31:24.823Z,100.00
2023-01-04T23:33:54.559Z,100.00
2023-01-04T23:36:24.847Z,100.00
2023-01-04T23:38:56.037Z,100.00
2023-01-04T23:41:44.149Z,100.00
2023-01-04T23:44:14.062Z,100.00
2023-01-04T23:46:42.419Z,100.00
2023-01-04T23:49:10.554Z,100.00
2023-01-04T23:51:39.468Z,100.00
2023-01-04T23:54:09.005Z,100.00
2023-01-04T23:56:37.175Z,100.00
2023-01-04T23:59:05.328Z,100.00
